LHA8768 KAUS-TNCM
Flight info
| Callsign | LHA8768 |
|---|---|
| Flight time | 4h 2m |
| Altitude | 37000 |
| Route | CWK8 TNV J87 IAH J86 LEV Q102 BAGGS Y290 HAGIT Y308 ACONY Y280 STIIV L577 GOUDA |
| Aircraft | B77W/H-SDE1E2FGIJ1RWYZ/S |
Departure
| Time | 2026-05-04 18:09 |
|---|---|
| Airport | Austin Bergstrom International Airport (KAUS) |
Arrival
| Time | 2026-05-04 22:12 |
|---|---|
| Airport | Princess Juliana International Airport (TNCM) |
| Time | Latitude | Longitude | Altitude | Speed | Heading |
|---|---|---|---|---|---|
| 2026-05-04 17:20 | 30.20183 | -97.66461 | 512 ft | 0 kts | 356° |
| 2026-05-04 17:52 | 30.20158 | -97.66459 | 511 ft | 4 kts | 354° |
| 2026-05-04 17:52 | 30.20131 | -97.66456 | 511 ft | 4 kts | 2° |
| 2026-05-04 17:52 | 30.20106 | -97.66462 | 511 ft | 4 kts | 38° |
| 2026-05-04 17:53 | 30.20092 | -97.66485 | 511 ft | 4 kts | 82° |
| 2026-05-04 17:53 | 30.20091 | -97.66496 | 512 ft | 2 kts | 89° |
| 2026-05-04 17:55 | 30.20091 | -97.66494 | 512 ft | 2 kts | 89° |
| 2026-05-04 17:56 | 30.20092 | -97.66452 | 510 ft | 9 kts | 89° |
| 2026-05-04 17:56 | 30.20093 | -97.66366 | 507 ft | 12 kts | 88° |
| 2026-05-04 17:56 | 30.20096 | -97.66251 | 501 ft | 16 kts | 88° |
| 2026-05-04 17:56 | 30.20098 | -97.66153 | 489 ft | 10 kts | 89° |
| 2026-05-04 17:57 | 30.20082 | -97.66096 | 485 ft | 6 kts | 157° |
| 2026-05-04 17:57 | 30.20046 | -97.66111 | 483 ft | 6 kts | 230° |
| 2026-05-04 17:57 | 30.20036 | -97.66166 | 488 ft | 10 kts | 266° |
| 2026-05-04 17:57 | 30.20034 | -97.66266 | 502 ft | 8 kts | 269° |
| 2026-05-04 17:58 | 30.20033 | -97.66328 | 501 ft | 11 kts | 269° |
| 2026-05-04 17:58 | 30.20030 | -97.66372 | 506 ft | 3 kts | 255° |
| 2026-05-04 17:58 | 30.20009 | -97.66396 | 507 ft | 3 kts | 201° |
| 2026-05-04 17:58 | 30.19997 | -97.66395 | 507 ft | 0 kts | 174° |
| 2026-05-04 18:04 | 30.19996 | -97.66395 | 507 ft | 0 kts | 174° |
| 2026-05-04 18:04 | 30.19974 | -97.66392 | 496 ft | 6 kts | 174° |
| 2026-05-04 18:04 | 30.19914 | -97.66308 | 504 ft | 11 kts | 89° |
| 2026-05-04 18:05 | 30.19916 | -97.66208 | 499 ft | 14 kts | 88° |
| 2026-05-04 18:05 | 30.19918 | -97.66097 | 487 ft | 14 kts | 89° |
| 2026-05-04 18:05 | 30.19927 | -97.66009 | 483 ft | 8 kts | 59° |
| 2026-05-04 18:05 | 30.19985 | -97.65991 | 481 ft | 10 kts | 359° |
| 2026-05-04 18:06 | 30.20146 | -97.65995 | 484 ft | 12 kts | 359° |
| 2026-05-04 18:06 | 30.20227 | -97.65997 | 481 ft | 12 kts | 359° |
| 2026-05-04 18:06 | 30.20310 | -97.65999 | 483 ft | 11 kts | 359° |
| 2026-05-04 18:07 | 30.20362 | -97.65970 | 479 ft | 9 kts | 59° |
| 2026-05-04 18:07 | 30.20370 | -97.65926 | 482 ft | 2 kts | 88° |
| 2026-05-04 18:07 | 30.20370 | -97.65923 | 482 ft | 0 kts | 89° |
| 2026-05-04 18:07 | 30.20370 | -97.65918 | 485 ft | 2 kts | 89° |
| 2026-05-04 18:08 | 30.20371 | -97.65878 | 486 ft | 8 kts | 89° |
| 2026-05-04 18:08 | 30.20370 | -97.65823 | 487 ft | 7 kts | 96° |
| 2026-05-04 18:08 | 30.20337 | -97.65791 | 478 ft | 7 kts | 164° |
| 2026-05-04 18:08 | 30.20287 | -97.65787 | 480 ft | 11 kts | 179° |
| 2026-05-04 18:09 | 30.19489 | -97.65767 | 504 ft | 123 kts | 179° |
| 2026-05-04 18:09 | 30.17213 | -97.65685 | 1176 ft | 181 kts | 178° |
| 2026-05-04 18:10 | 30.15957 | -97.65592 | 1993 ft | 180 kts | 178° |
| 2026-05-04 18:10 | 30.14682 | -97.65483 | 2584 ft | 193 kts | 178° |
| 2026-05-04 18:10 | 30.13241 | -97.65369 | 2835 ft | 223 kts | 178° |
| 2026-05-04 18:10 | 30.11652 | -97.65245 | 3481 ft | 233 kts | 178° |
| 2026-05-04 18:11 | 30.09977 | -97.65112 | 4165 ft | 245 kts | 178° |
| 2026-05-04 18:11 | 30.08264 | -97.64957 | 4951 ft | 249 kts | 173° |
| 2026-05-04 18:11 | 30.06649 | -97.64101 | 5475 ft | 270 kts | 139° |
| 2026-05-04 18:11 | 30.05656 | -97.62210 | 6090 ft | 287 kts | 106° |
| 2026-05-04 18:12 | 30.05376 | -97.59884 | 6602 ft | 300 kts | 96° |
| 2026-05-04 18:12 | 30.05168 | -97.57477 | 7315 ft | 305 kts | 97° |
| 2026-05-04 18:12 | 30.04956 | -97.55056 | 8261 ft | 301 kts | 96° |
| 2026-05-04 18:12 | 30.04748 | -97.52652 | 9075 ft | 303 kts | 96° |
| 2026-05-04 18:13 | 30.04537 | -97.50214 | 9806 ft | 309 kts | 96° |
| 2026-05-04 18:13 | 30.04320 | -97.47709 | 10365 ft | 320 kts | 95° |
| 2026-05-04 18:13 | 30.03835 | -97.42168 | 10818 ft | 373 kts | 95° |
| 2026-05-04 18:14 | 30.03563 | -97.39104 | 11186 ft | 392 kts | 96° |
| 2026-05-04 18:14 | 30.03280 | -97.35934 | 11865 ft | 402 kts | 95° |
| 2026-05-04 18:14 | 30.02988 | -97.32692 | 12699 ft | 409 kts | 95° |
| 2026-05-04 18:15 | 30.02387 | -97.26042 | 14344 ft | 424 kts | 95° |
| 2026-05-04 18:15 | 30.01761 | -97.19166 | 15943 ft | 437 kts | 95° |
| 2026-05-04 18:15 | 30.01441 | -97.15670 | 16753 ft | 444 kts | 95° |
| 2026-05-04 18:16 | 30.01114 | -97.12101 | 17540 ft | 450 kts | 95° |
| 2026-05-04 18:16 | 30.00779 | -97.08464 | 18293 ft | 458 kts | 95° |
| 2026-05-04 18:16 | 30.00440 | -97.04787 | 18920 ft | 464 kts | 95° |
| 2026-05-04 18:17 | 29.99747 | -96.97312 | 20206 ft | 476 kts | 94° |
| 2026-05-04 18:17 | 29.99391 | -96.93491 | 20856 ft | 482 kts | 94° |
| 2026-05-04 18:17 | 29.98664 | -96.85721 | 22100 ft | 493 kts | 94° |
| 2026-05-04 18:18 | 29.98291 | -96.81759 | 22690 ft | 499 kts | 94° |
| 2026-05-04 18:18 | 29.97918 | -96.77803 | 23264 ft | 505 kts | 94° |
| 2026-05-04 18:18 | 29.97529 | -96.73694 | 23788 ft | 511 kts | 94° |
| 2026-05-04 18:18 | 29.97140 | -96.69596 | 24245 ft | 516 kts | 94° |
| 2026-05-04 18:19 | 29.96347 | -96.61294 | 25196 ft | 526 kts | 94° |
| 2026-05-04 18:19 | 29.95944 | -96.57092 | 25682 ft | 530 kts | 93° |
| 2026-05-04 18:19 | 29.95534 | -96.52843 | 26127 ft | 535 kts | 93° |
| 2026-05-04 18:20 | 29.95127 | -96.48632 | 26573 ft | 540 kts | 93° |
| 2026-05-04 18:20 | 29.94704 | -96.44272 | 27095 ft | 543 kts | 93° |
| 2026-05-04 18:20 | 29.94286 | -96.39981 | 27565 ft | 547 kts | 93° |
| 2026-05-04 18:20 | 29.93858 | -96.35598 | 28002 ft | 552 kts | 93° |
| 2026-05-04 18:21 | 29.93427 | -96.31191 | 28420 ft | 557 kts | 93° |
| 2026-05-04 18:21 | 29.92989 | -96.26737 | 28841 ft | 561 kts | 93° |
| 2026-05-04 18:21 | 29.92548 | -96.22263 | 29278 ft | 565 kts | 93° |
| 2026-05-04 18:21 | 29.92100 | -96.17744 | 29699 ft | 569 kts | 93° |
| 2026-05-04 18:22 | 29.91648 | -96.13192 | 30090 ft | 572 kts | 93° |
| 2026-05-04 18:22 | 29.91193 | -96.08637 | 30526 ft | 574 kts | 93° |
| 2026-05-04 18:22 | 29.90733 | -96.04062 | 30987 ft | 574 kts | 93° |
| 2026-05-04 18:22 | 29.90273 | -95.99492 | 31465 ft | 573 kts | 93° |
| 2026-05-04 18:23 | 29.89813 | -95.94942 | 31935 ft | 573 kts | 93° |
| 2026-05-04 18:23 | 29.89351 | -95.90380 | 32391 ft | 572 kts | 93° |
| 2026-05-04 18:23 | 29.88885 | -95.85787 | 32822 ft | 572 kts | 92° |
| 2026-05-04 18:23 | 29.88423 | -95.81251 | 33222 ft | 573 kts | 92° |
| 2026-05-04 18:24 | 29.87958 | -95.76694 | 33619 ft | 573 kts | 92° |
| 2026-05-04 18:24 | 29.87493 | -95.72158 | 34014 ft | 573 kts | 92° |
| 2026-05-04 18:24 | 29.87025 | -95.67614 | 34404 ft | 572 kts | 92° |
| 2026-05-04 18:24 | 29.86554 | -95.63065 | 34830 ft | 570 kts | 92° |
| 2026-05-04 18:25 | 29.86084 | -95.58532 | 35244 ft | 568 kts | 92° |
| 2026-05-04 18:25 | 29.85615 | -95.54030 | 35638 ft | 567 kts | 92° |
| 2026-05-04 18:25 | 29.85145 | -95.49524 | 36005 ft | 565 kts | 92° |
| 2026-05-04 18:25 | 29.84674 | -95.45025 | 36372 ft | 564 kts | 92° |
| 2026-05-04 18:26 | 29.84204 | -95.40555 | 36725 ft | 563 kts | 92° |
| 2026-05-04 18:26 | 29.83733 | -95.36073 | 36993 ft | 564 kts | 92° |
| 2026-05-04 18:26 | 29.82783 | -95.27072 | 37051 ft | 567 kts | 92° |
| 2026-05-04 18:27 | 29.81825 | -95.18104 | 37040 ft | 562 kts | 92° |
| 2026-05-04 18:27 | 29.80866 | -95.09187 | 37034 ft | 559 kts | 92° |
| 2026-05-04 18:28 | 29.79909 | -95.00318 | 37041 ft | 558 kts | 92° |
| 2026-05-04 18:28 | 29.78947 | -94.91451 | 37059 ft | 559 kts | 92° |
| 2026-05-04 18:29 | 29.77977 | -94.82567 | 37057 ft | 560 kts | 92° |
| 2026-05-04 18:29 | 29.77008 | -94.73760 | 37057 ft | 562 kts | 92° |
| 2026-05-04 18:30 | 29.75519 | -94.60330 | 37059 ft | 564 kts | 92° |
| 2026-05-04 18:31 | 29.74520 | -94.51397 | 37057 ft | 564 kts | 92° |
| 2026-05-04 18:31 | 29.73515 | -94.42469 | 37062 ft | 564 kts | 92° |
| 2026-05-04 18:32 | 29.72499 | -94.33489 | 37064 ft | 563 kts | 92° |
| 2026-05-04 18:32 | 29.71484 | -94.24583 | 37065 ft | 562 kts | 92° |
| 2026-05-04 18:33 | 29.70466 | -94.15692 | 37077 ft | 561 kts | 92° |
| 2026-05-04 18:33 | 29.69443 | -94.06815 | 37050 ft | 561 kts | 92° |
| 2026-05-04 18:34 | 29.68416 | -93.97955 | 37072 ft | 560 kts | 92° |
| 2026-05-04 18:34 | 29.67378 | -93.89051 | 37073 ft | 559 kts | 92° |
| 2026-05-04 18:35 | 29.66342 | -93.80219 | 37103 ft | 558 kts | 92° |
| 2026-05-04 18:35 | 29.65300 | -93.71390 | 37080 ft | 558 kts | 92° |
| 2026-05-04 18:36 | 29.64253 | -93.62567 | 37106 ft | 558 kts | 93° |
| 2026-05-04 18:36 | 29.63193 | -93.53683 | 37085 ft | 559 kts | 93° |
| 2026-05-04 18:37 | 29.62133 | -93.44856 | 37092 ft | 559 kts | 93° |
| 2026-05-04 18:37 | 29.61067 | -93.36023 | 37093 ft | 559 kts | 93° |
| 2026-05-04 18:38 | 29.59994 | -93.27186 | 37088 ft | 560 kts | 93° |
| 2026-05-04 18:38 | 29.59087 | -93.19760 | 37113 ft | 560 kts | 93° |
| 2026-05-04 18:39 | 29.58002 | -93.10915 | 37095 ft | 560 kts | 93° |
| 2026-05-04 18:39 | 29.56910 | -93.02068 | 37105 ft | 561 kts | 93° |
| 2026-05-04 18:40 | 29.55805 | -92.93157 | 37099 ft | 561 kts | 93° |
| 2026-05-04 18:40 | 29.54700 | -92.84306 | 37096 ft | 561 kts | 93° |
| 2026-05-04 18:41 | 29.53590 | -92.75458 | 37096 ft | 561 kts | 93° |
| 2026-05-04 18:41 | 29.52474 | -92.66614 | 37122 ft | 561 kts | 93° |
| 2026-05-04 18:42 | 29.51353 | -92.57770 | 37063 ft | 561 kts | 93° |
| 2026-05-04 18:42 | 29.50219 | -92.48882 | 37092 ft | 560 kts | 93° |
| 2026-05-04 18:43 | 29.49088 | -92.40068 | 37095 ft | 559 kts | 94° |
| 2026-05-04 18:43 | 29.47954 | -92.31267 | 37093 ft | 558 kts | 94° |
| 2026-05-04 18:44 | 29.46814 | -92.22473 | 37109 ft | 558 kts | 94° |
| 2026-05-04 18:44 | 29.45661 | -92.13622 | 37101 ft | 558 kts | 94° |
| 2026-05-04 18:45 | 29.44510 | -92.04832 | 37094 ft | 558 kts | 94° |
| 2026-05-04 18:45 | 29.43353 | -91.96046 | 37100 ft | 558 kts | 94° |
| 2026-05-04 18:46 | 29.42190 | -91.87260 | 37121 ft | 559 kts | 94° |
| 2026-05-04 18:46 | 29.41013 | -91.78406 | 37112 ft | 559 kts | 94° |
| 2026-05-04 18:47 | 29.39836 | -91.69608 | 37107 ft | 559 kts | 94° |
| 2026-05-04 18:47 | 29.38654 | -91.60812 | 37115 ft | 559 kts | 94° |
| 2026-05-04 18:48 | 29.37465 | -91.52016 | 37128 ft | 559 kts | 94° |
| 2026-05-04 18:48 | 29.36263 | -91.43160 | 37113 ft | 560 kts | 94° |
| 2026-05-04 18:49 | 29.35062 | -91.34361 | 37109 ft | 560 kts | 94° |
| 2026-05-04 18:49 | 29.33855 | -91.25564 | 37108 ft | 560 kts | 94° |
| 2026-05-04 18:50 | 29.32634 | -91.16709 | 37108 ft | 560 kts | 94° |
| 2026-05-04 18:50 | 29.31415 | -91.07913 | 37112 ft | 560 kts | 94° |
| 2026-05-04 18:51 | 29.30190 | -90.99115 | 37106 ft | 560 kts | 94° |
| 2026-05-04 18:51 | 29.28960 | -90.90322 | 37106 ft | 560 kts | 94° |
| 2026-05-04 18:52 | 29.27716 | -90.81475 | 37103 ft | 560 kts | 94° |
| 2026-05-04 18:52 | 29.26474 | -90.72690 | 37111 ft | 560 kts | 94° |
| 2026-05-04 18:53 | 29.25228 | -90.63911 | 37102 ft | 560 kts | 94° |
| 2026-05-04 18:53 | 29.23976 | -90.55143 | 37106 ft | 558 kts | 94° |
| 2026-05-04 18:54 | 29.22714 | -90.46338 | 37105 ft | 558 kts | 94° |
| 2026-05-04 18:54 | 29.21456 | -90.37605 | 37133 ft | 557 kts | 94° |
| 2026-05-04 18:55 | 29.20194 | -90.28885 | 37122 ft | 556 kts | 94° |
| 2026-05-04 18:55 | 29.18285 | -90.15771 | 37116 ft | 555 kts | 95° |
| 2026-05-04 18:56 | 29.16370 | -90.07191 | 37112 ft | 561 kts | 106° |
| 2026-05-04 18:56 | 29.13346 | -89.98950 | 37127 ft | 563 kts | 111° |
| 2026-05-04 18:57 | 29.10161 | -89.90697 | 37103 ft | 564 kts | 110° |
| 2026-05-04 18:57 | 29.07033 | -89.82468 | 37103 ft | 564 kts | 110° |
| 2026-05-04 18:58 | 29.03946 | -89.74255 | 37104 ft | 564 kts | 110° |
| 2026-05-04 18:58 | 29.00852 | -89.66015 | 37104 ft | 564 kts | 110° |
| 2026-05-04 18:59 | 28.97746 | -89.57778 | 37101 ft | 564 kts | 110° |
| 2026-05-04 18:59 | 28.94642 | -89.49572 | 37076 ft | 564 kts | 110° |
| 2026-05-04 19:00 | 28.91524 | -89.41351 | 37098 ft | 563 kts | 110° |
| 2026-05-04 19:00 | 28.88421 | -89.33184 | 37101 ft | 563 kts | 110° |
| 2026-05-04 19:01 | 28.85278 | -89.24932 | 37100 ft | 563 kts | 110° |
| 2026-05-04 19:01 | 28.82178 | -89.16808 | 37103 ft | 563 kts | 110° |
| 2026-05-04 19:02 | 28.79048 | -89.08624 | 37096 ft | 562 kts | 110° |
| 2026-05-04 19:02 | 28.75920 | -89.00463 | 37098 ft | 562 kts | 110° |
| 2026-05-04 19:03 | 28.72787 | -88.92308 | 37097 ft | 562 kts | 110° |
| 2026-05-04 19:03 | 28.69651 | -88.84161 | 37117 ft | 561 kts | 110° |
| 2026-05-04 19:04 | 28.66513 | -88.76026 | 37100 ft | 561 kts | 111° |
| 2026-05-04 19:04 | 28.63383 | -88.67931 | 37096 ft | 559 kts | 111° |
| 2026-05-04 19:05 | 28.60243 | -88.59826 | 37088 ft | 559 kts | 111° |
| 2026-05-04 19:05 | 28.57110 | -88.51756 | 37094 ft | 558 kts | 111° |
| 2026-05-04 19:06 | 28.53966 | -88.43675 | 37102 ft | 558 kts | 111° |
| 2026-05-04 19:06 | 28.50823 | -88.35613 | 37090 ft | 558 kts | 111° |
| 2026-05-04 19:07 | 28.47678 | -88.27563 | 37087 ft | 557 kts | 111° |
| 2026-05-04 19:07 | 28.44531 | -88.19526 | 37086 ft | 557 kts | 111° |
| 2026-05-04 19:08 | 28.41376 | -88.11482 | 37087 ft | 557 kts | 111° |
| 2026-05-04 19:08 | 28.38245 | -88.03448 | 37092 ft | 556 kts | 109° |
| 2026-05-04 19:09 | 28.35731 | -87.95192 | 37095 ft | 553 kts | 104° |
| 2026-05-04 19:09 | 28.33405 | -87.86889 | 37089 ft | 552 kts | 104° |
| 2026-05-04 19:10 | 28.31049 | -87.78589 | 37087 ft | 552 kts | 104° |
| 2026-05-04 19:10 | 28.28661 | -87.70321 | 37110 ft | 552 kts | 105° |
| 2026-05-04 19:11 | 28.26250 | -87.62038 | 37082 ft | 552 kts | 105° |
| 2026-05-04 19:11 | 28.23842 | -87.53778 | 37080 ft | 551 kts | 105° |
| 2026-05-04 19:12 | 28.20229 | -87.41406 | 37081 ft | 550 kts | 105° |
| 2026-05-04 19:13 | 28.17820 | -87.33177 | 37081 ft | 550 kts | 105° |
| 2026-05-04 19:13 | 28.15408 | -87.24959 | 37084 ft | 549 kts | 106° |
| 2026-05-04 19:14 | 28.13009 | -87.16814 | 37070 ft | 548 kts | 106° |
| 2026-05-04 19:14 | 28.10591 | -87.08620 | 37074 ft | 547 kts | 106° |
| 2026-05-04 19:15 | 28.08177 | -87.00456 | 37076 ft | 547 kts | 106° |
| 2026-05-04 19:15 | 28.05760 | -86.92301 | 37090 ft | 546 kts | 107° |
| 2026-05-04 19:16 | 28.03340 | -86.84160 | 37067 ft | 545 kts | 107° |
| 2026-05-04 19:16 | 28.00918 | -86.76026 | 37068 ft | 544 kts | 107° |
| 2026-05-04 19:17 | 27.98545 | -86.67903 | 37071 ft | 544 kts | 106° |
| 2026-05-04 19:17 | 27.96205 | -86.59766 | 37071 ft | 544 kts | 106° |
| 2026-05-04 19:18 | 27.93856 | -86.51627 | 37078 ft | 544 kts | 107° |
| 2026-05-04 19:18 | 27.91489 | -86.43483 | 37066 ft | 544 kts | 107° |
| 2026-05-04 19:19 | 27.89118 | -86.35359 | 37063 ft | 544 kts | 107° |
| 2026-05-04 19:19 | 27.86745 | -86.27242 | 37063 ft | 544 kts | 107° |
| 2026-05-04 19:20 | 27.84369 | -86.19132 | 37059 ft | 544 kts | 107° |
| 2026-05-04 19:20 | 27.81987 | -86.11018 | 37062 ft | 543 kts | 108° |
| 2026-05-04 19:21 | 27.79607 | -86.02937 | 37053 ft | 542 kts | 108° |
| 2026-05-04 19:21 | 27.77223 | -85.94863 | 37055 ft | 540 kts | 108° |
| 2026-05-04 19:22 | 27.74844 | -85.86819 | 37057 ft | 540 kts | 108° |
| 2026-05-04 19:22 | 27.72483 | -85.78857 | 37057 ft | 539 kts | 108° |
| 2026-05-04 19:23 | 27.70084 | -85.70785 | 37055 ft | 539 kts | 108° |
| 2026-05-04 19:23 | 27.67711 | -85.62821 | 37055 ft | 539 kts | 108° |
| 2026-05-04 19:24 | 27.65293 | -85.54726 | 37059 ft | 540 kts | 108° |
| 2026-05-04 19:24 | 27.62892 | -85.46700 | 37055 ft | 540 kts | 108° |
| 2026-05-04 19:25 | 27.60506 | -85.38745 | 37061 ft | 540 kts | 109° |
| 2026-05-04 19:25 | 27.58429 | -85.30616 | 37046 ft | 540 kts | 101° |
| 2026-05-04 19:26 | 27.57037 | -85.22313 | 37057 ft | 539 kts | 99° |
| 2026-05-04 19:26 | 27.55657 | -85.14000 | 37050 ft | 539 kts | 100° |
| 2026-05-04 19:27 | 27.54462 | -85.07069 | 37058 ft | 538 kts | 100° |
| 2026-05-04 19:27 | 27.53018 | -84.98838 | 37061 ft | 538 kts | 101° |
| 2026-05-04 19:28 | 27.51563 | -84.90573 | 37055 ft | 538 kts | 101° |
| 2026-05-04 19:28 | 27.50105 | -84.82295 | 37055 ft | 537 kts | 101° |
| 2026-05-04 19:29 | 27.48646 | -84.74056 | 37052 ft | 537 kts | 101° |
| 2026-05-04 19:29 | 27.47169 | -84.65802 | 37053 ft | 537 kts | 102° |
| 2026-05-04 19:30 | 27.45687 | -84.57556 | 37053 ft | 537 kts | 102° |
| 2026-05-04 19:30 | 27.44203 | -84.49320 | 37052 ft | 537 kts | 102° |
| 2026-05-04 19:31 | 27.42717 | -84.41096 | 37051 ft | 537 kts | 102° |
| 2026-05-04 19:31 | 27.41222 | -84.32848 | 37052 ft | 537 kts | 102° |
| 2026-05-04 19:32 | 27.39735 | -84.24672 | 37054 ft | 537 kts | 103° |
| 2026-05-04 19:32 | 27.38235 | -84.16456 | 37049 ft | 537 kts | 103° |
| 2026-05-04 19:33 | 27.36730 | -84.08243 | 37050 ft | 537 kts | 103° |
| 2026-05-04 19:33 | 27.35211 | -83.99980 | 37048 ft | 537 kts | 103° |
| 2026-05-04 19:34 | 27.33698 | -83.91776 | 37023 ft | 536 kts | 103° |
| 2026-05-04 19:34 | 27.32181 | -83.83581 | 37040 ft | 537 kts | 103° |
| 2026-05-04 19:35 | 27.30658 | -83.75383 | 37041 ft | 537 kts | 103° |
| 2026-05-04 19:35 | 27.29119 | -83.67126 | 37038 ft | 537 kts | 103° |
| 2026-05-04 19:36 | 27.27584 | -83.58921 | 37041 ft | 538 kts | 103° |
| 2026-05-04 19:36 | 27.26045 | -83.50713 | 37035 ft | 538 kts | 104° |
| 2026-05-04 19:37 | 27.24500 | -83.42507 | 37034 ft | 538 kts | 104° |
| 2026-05-04 19:37 | 27.22939 | -83.34247 | 37032 ft | 538 kts | 104° |
| 2026-05-04 19:38 | 27.21384 | -83.26043 | 37033 ft | 538 kts | 104° |
| 2026-05-04 19:38 | 27.19825 | -83.17841 | 37033 ft | 538 kts | 104° |
| 2026-05-04 19:39 | 27.18261 | -83.09643 | 37030 ft | 538 kts | 104° |
| 2026-05-04 19:39 | 27.16692 | -83.01395 | 37026 ft | 538 kts | 104° |
| 2026-05-04 19:40 | 27.15138 | -82.93204 | 37028 ft | 537 kts | 104° |
| 2026-05-04 19:40 | 27.12974 | -82.85259 | 37024 ft | 530 kts | 119° |
| 2026-05-04 19:41 | 27.09285 | -82.78221 | 37018 ft | 519 kts | 134° |
| 2026-05-04 19:41 | 27.04667 | -82.71990 | 37026 ft | 517 kts | 136° |
| 2026-05-04 19:42 | 27.00060 | -82.65826 | 37029 ft | 517 kts | 135° |
| 2026-05-04 19:42 | 26.95496 | -82.59621 | 37026 ft | 516 kts | 135° |
| 2026-05-04 19:43 | 26.90952 | -82.53408 | 37011 ft | 516 kts | 135° |
| 2026-05-04 19:43 | 26.86376 | -82.47164 | 37013 ft | 516 kts | 135° |
| 2026-05-04 19:44 | 26.81826 | -82.40970 | 37019 ft | 516 kts | 135° |
| 2026-05-04 19:44 | 26.77277 | -82.34785 | 37010 ft | 515 kts | 135° |
| 2026-05-04 19:45 | 26.72692 | -82.28574 | 37020 ft | 515 kts | 135° |
| 2026-05-04 19:45 | 26.68133 | -82.22416 | 37014 ft | 515 kts | 135° |
| 2026-05-04 19:46 | 26.63574 | -82.16263 | 36979 ft | 515 kts | 135° |
| 2026-05-04 19:46 | 26.59146 | -82.09986 | 36998 ft | 520 kts | 129° |
| 2026-05-04 19:47 | 26.55645 | -82.02818 | 37002 ft | 528 kts | 117° |
| 2026-05-04 19:47 | 26.52821 | -81.95254 | 37007 ft | 529 kts | 117° |
| 2026-05-04 19:48 | 26.49989 | -81.87686 | 37007 ft | 529 kts | 117° |
| 2026-05-04 19:48 | 26.47119 | -81.80136 | 37038 ft | 530 kts | 117° |
| 2026-05-04 19:49 | 26.44207 | -81.72543 | 37035 ft | 530 kts | 117° |
| 2026-05-04 19:49 | 26.41309 | -81.65007 | 37024 ft | 529 kts | 117° |
| 2026-05-04 19:50 | 26.38392 | -81.57430 | 37027 ft | 529 kts | 117° |
| 2026-05-04 19:50 | 26.35493 | -81.49909 | 37018 ft | 529 kts | 117° |
| 2026-05-04 19:51 | 26.32573 | -81.42348 | 37001 ft | 528 kts | 117° |
| 2026-05-04 19:51 | 26.29671 | -81.34846 | 36991 ft | 528 kts | 117° |
| 2026-05-04 19:52 | 26.26747 | -81.27303 | 37007 ft | 528 kts | 118° |
| 2026-05-04 19:52 | 26.23836 | -81.19806 | 37021 ft | 529 kts | 118° |
| 2026-05-04 19:53 | 26.20895 | -81.12248 | 37022 ft | 530 kts | 118° |
| 2026-05-04 19:53 | 26.17963 | -81.04727 | 37023 ft | 531 kts | 118° |
| 2026-05-04 19:54 | 26.15022 | -80.97195 | 37024 ft | 532 kts | 118° |
| 2026-05-04 19:54 | 26.12054 | -80.89606 | 37021 ft | 533 kts | 118° |
| 2026-05-04 19:55 | 26.09098 | -80.82064 | 37021 ft | 533 kts | 118° |
| 2026-05-04 19:55 | 26.06119 | -80.74474 | 37029 ft | 533 kts | 118° |
| 2026-05-04 19:56 | 26.03155 | -80.66941 | 37024 ft | 532 kts | 118° |
| 2026-05-04 19:56 | 26.00193 | -80.59422 | 37032 ft | 532 kts | 118° |
| 2026-05-04 19:57 | 25.97210 | -80.51866 | 37015 ft | 531 kts | 118° |
| 2026-05-04 19:57 | 25.94248 | -80.44378 | 37040 ft | 530 kts | 118° |
| 2026-05-04 19:58 | 25.91279 | -80.36886 | 37025 ft | 531 kts | 118° |
| 2026-05-04 19:58 | 25.88290 | -80.29355 | 37048 ft | 530 kts | 118° |
| 2026-05-04 19:59 | 25.85316 | -80.21877 | 37028 ft | 530 kts | 118° |
| 2026-05-04 19:59 | 25.82338 | -80.14401 | 37019 ft | 531 kts | 118° |
| 2026-05-04 20:00 | 25.79354 | -80.06924 | 37007 ft | 531 kts | 118° |
| 2026-05-04 20:00 | 25.76345 | -79.99397 | 37026 ft | 531 kts | 118° |
| 2026-05-04 20:01 | 25.73349 | -79.91919 | 36998 ft | 532 kts | 118° |
| 2026-05-04 20:01 | 25.70349 | -79.84441 | 37009 ft | 532 kts | 118° |
| 2026-05-04 20:02 | 25.67324 | -79.76914 | 37006 ft | 532 kts | 119° |
| 2026-05-04 20:02 | 25.64316 | -79.69443 | 36999 ft | 532 kts | 119° |
| 2026-05-04 20:03 | 25.61304 | -79.61976 | 37000 ft | 532 kts | 119° |
| 2026-05-04 20:03 | 25.58290 | -79.54517 | 36994 ft | 531 kts | 119° |
| 2026-05-04 20:04 | 25.55254 | -79.47017 | 36991 ft | 531 kts | 119° |
| 2026-05-04 20:04 | 25.52235 | -79.39571 | 36981 ft | 531 kts | 119° |
| 2026-05-04 20:05 | 25.49209 | -79.32122 | 37002 ft | 532 kts | 119° |
| 2026-05-04 20:05 | 25.46174 | -79.24664 | 36996 ft | 533 kts | 119° |
| 2026-05-04 20:06 | 25.43130 | -79.17197 | 36998 ft | 534 kts | 119° |
| 2026-05-04 20:06 | 25.40058 | -79.09674 | 36991 ft | 534 kts | 119° |
| 2026-05-04 20:07 | 25.37000 | -79.02198 | 36980 ft | 535 kts | 120° |
| 2026-05-04 20:07 | 25.33936 | -78.94720 | 36994 ft | 535 kts | 120° |
| 2026-05-04 20:08 | 25.30866 | -78.87240 | 36992 ft | 536 kts | 120° |
| 2026-05-04 20:08 | 25.28283 | -78.80958 | 36986 ft | 536 kts | 120° |
| 2026-05-04 20:09 | 25.25183 | -78.73431 | 36984 ft | 536 kts | 120° |
| 2026-05-04 20:09 | 25.22122 | -78.66008 | 36980 ft | 536 kts | 120° |
| 2026-05-04 20:10 | 25.19036 | -78.58540 | 36951 ft | 536 kts | 120° |
| 2026-05-04 20:10 | 25.15927 | -78.51030 | 36983 ft | 536 kts | 120° |
| 2026-05-04 20:11 | 25.12830 | -78.43563 | 36991 ft | 536 kts | 120° |
| 2026-05-04 20:11 | 25.09725 | -78.36088 | 36988 ft | 537 kts | 120° |
| 2026-05-04 20:12 | 25.06591 | -78.28556 | 36986 ft | 538 kts | 120° |
| 2026-05-04 20:12 | 25.03472 | -78.21070 | 36984 ft | 538 kts | 120° |
| 2026-05-04 20:13 | 25.00347 | -78.13584 | 36981 ft | 539 kts | 120° |
| 2026-05-04 20:13 | 24.97197 | -78.06053 | 36981 ft | 538 kts | 120° |
| 2026-05-04 20:14 | 24.94066 | -77.98577 | 36982 ft | 538 kts | 120° |
| 2026-05-04 20:14 | 24.90931 | -77.91107 | 36977 ft | 538 kts | 120° |
| 2026-05-04 20:15 | 24.87797 | -77.83649 | 36981 ft | 537 kts | 120° |
| 2026-05-04 20:15 | 24.84661 | -77.76203 | 36979 ft | 537 kts | 120° |
| 2026-05-04 20:16 | 24.81505 | -77.68719 | 36945 ft | 536 kts | 120° |
| 2026-05-04 20:16 | 24.78371 | -77.61298 | 36980 ft | 536 kts | 120° |
| 2026-05-04 20:17 | 24.75233 | -77.53880 | 36981 ft | 536 kts | 120° |
| 2026-05-04 20:17 | 24.71937 | -77.46459 | 36988 ft | 534 kts | 122° |
| 2026-05-04 20:18 | 24.68561 | -77.39166 | 36982 ft | 535 kts | 123° |
| 2026-05-04 20:18 | 24.65189 | -77.31880 | 36985 ft | 535 kts | 122° |
| 2026-05-04 20:19 | 24.61834 | -77.24581 | 36984 ft | 535 kts | 122° |
| 2026-05-04 20:19 | 24.58478 | -77.17259 | 36985 ft | 535 kts | 122° |
| 2026-05-04 20:20 | 24.55124 | -77.09953 | 36983 ft | 535 kts | 122° |
| 2026-05-04 20:20 | 24.51765 | -77.02652 | 36987 ft | 535 kts | 122° |
| 2026-05-04 20:21 | 24.48408 | -76.95369 | 36989 ft | 536 kts | 122° |
| 2026-05-04 20:21 | 24.43353 | -76.84428 | 36965 ft | 536 kts | 122° |
| 2026-05-04 20:22 | 24.39984 | -76.77147 | 36992 ft | 535 kts | 122° |
| 2026-05-04 20:22 | 24.36609 | -76.69867 | 36991 ft | 536 kts | 122° |
| 2026-05-04 20:23 | 24.33227 | -76.62582 | 36990 ft | 536 kts | 122° |
| 2026-05-04 20:23 | 24.29833 | -76.55283 | 36992 ft | 537 kts | 122° |
| 2026-05-04 20:24 | 24.26460 | -76.48041 | 36982 ft | 537 kts | 122° |
| 2026-05-04 20:24 | 24.23061 | -76.40753 | 36988 ft | 537 kts | 122° |
| 2026-05-04 20:25 | 24.19658 | -76.33467 | 36993 ft | 537 kts | 122° |
| 2026-05-04 20:25 | 24.16245 | -76.26173 | 36993 ft | 537 kts | 122° |
| 2026-05-04 20:26 | 24.12835 | -76.18895 | 36991 ft | 537 kts | 122° |
| 2026-05-04 20:26 | 24.09422 | -76.11623 | 36990 ft | 537 kts | 122° |
| 2026-05-04 20:27 | 24.06012 | -76.04368 | 36993 ft | 536 kts | 122° |
| 2026-05-04 20:27 | 24.02604 | -75.97127 | 36994 ft | 535 kts | 122° |
| 2026-05-04 20:28 | 23.99191 | -75.89889 | 36995 ft | 534 kts | 122° |
| 2026-05-04 20:28 | 23.95784 | -75.82674 | 36997 ft | 534 kts | 122° |
| 2026-05-04 20:29 | 23.92376 | -75.75469 | 36989 ft | 534 kts | 123° |
| 2026-05-04 20:29 | 23.88959 | -75.68255 | 36998 ft | 534 kts | 123° |
| 2026-05-04 20:30 | 23.85541 | -75.61051 | 36998 ft | 535 kts | 123° |
| 2026-05-04 20:30 | 23.82115 | -75.53840 | 36998 ft | 535 kts | 123° |
| 2026-05-04 20:31 | 23.78682 | -75.46623 | 36996 ft | 536 kts | 123° |
| 2026-05-04 20:31 | 23.75241 | -75.39402 | 36985 ft | 536 kts | 123° |
| 2026-05-04 20:32 | 23.71814 | -75.32220 | 36993 ft | 536 kts | 123° |
| 2026-05-04 20:32 | 23.68343 | -75.24957 | 36995 ft | 537 kts | 123° |
| 2026-05-04 20:33 | 23.64891 | -75.17746 | 36981 ft | 536 kts | 123° |
| 2026-05-04 20:33 | 23.61438 | -75.10542 | 36991 ft | 536 kts | 123° |
| 2026-05-04 20:34 | 23.57978 | -75.03335 | 36987 ft | 536 kts | 123° |
| 2026-05-04 20:34 | 23.54557 | -74.96220 | 36988 ft | 536 kts | 123° |
| 2026-05-04 20:35 | 23.51101 | -74.89042 | 37005 ft | 536 kts | 123° |
| 2026-05-04 20:35 | 23.47620 | -74.81823 | 37007 ft | 536 kts | 123° |
| 2026-05-04 20:36 | 23.44160 | -74.74658 | 36994 ft | 535 kts | 123° |
| 2026-05-04 20:36 | 23.40699 | -74.67501 | 36986 ft | 535 kts | 123° |
| 2026-05-04 20:37 | 23.37236 | -74.60352 | 36986 ft | 535 kts | 123° |
| 2026-05-04 20:37 | 23.33748 | -74.53161 | 36989 ft | 535 kts | 123° |
| 2026-05-04 20:38 | 23.30281 | -74.46024 | 37009 ft | 534 kts | 123° |
| 2026-05-04 20:38 | 23.26812 | -74.38893 | 36985 ft | 534 kts | 123° |
| 2026-05-04 20:39 | 23.23319 | -74.31724 | 36986 ft | 534 kts | 123° |
| 2026-05-04 20:39 | 23.19850 | -74.24612 | 36993 ft | 533 kts | 123° |
| 2026-05-04 20:40 | 23.16378 | -74.17505 | 36993 ft | 533 kts | 123° |
| 2026-05-04 20:40 | 23.12902 | -74.10402 | 36991 ft | 534 kts | 123° |
| 2026-05-04 20:41 | 23.09399 | -74.03253 | 36994 ft | 534 kts | 123° |
| 2026-05-04 20:41 | 23.05916 | -73.96155 | 36989 ft | 533 kts | 123° |
| 2026-05-04 20:42 | 23.02432 | -73.89065 | 36995 ft | 533 kts | 123° |
| 2026-05-04 20:42 | 22.98945 | -73.81980 | 36993 ft | 533 kts | 123° |
| 2026-05-04 20:43 | 22.95434 | -73.74854 | 36994 ft | 533 kts | 123° |
| 2026-05-04 20:43 | 22.91943 | -73.67780 | 36993 ft | 533 kts | 123° |
| 2026-05-04 20:44 | 22.88449 | -73.60711 | 36974 ft | 533 kts | 123° |
| 2026-05-04 20:44 | 22.84958 | -73.53656 | 36993 ft | 532 kts | 123° |
| 2026-05-04 20:45 | 22.81444 | -73.46564 | 36997 ft | 531 kts | 123° |
| 2026-05-04 20:45 | 22.77951 | -73.39528 | 36997 ft | 531 kts | 123° |
| 2026-05-04 20:46 | 22.74457 | -73.32496 | 36997 ft | 531 kts | 123° |
| 2026-05-04 20:46 | 22.70936 | -73.25423 | 36999 ft | 531 kts | 123° |
| 2026-05-04 20:47 | 22.67438 | -73.18402 | 36996 ft | 531 kts | 123° |
| 2026-05-04 20:47 | 22.63937 | -73.11388 | 36997 ft | 531 kts | 123° |
| 2026-05-04 20:48 | 22.60434 | -73.04378 | 37000 ft | 530 kts | 123° |
| 2026-05-04 20:48 | 22.56928 | -72.97373 | 37000 ft | 530 kts | 123° |
| 2026-05-04 20:49 | 22.53396 | -72.90325 | 36994 ft | 530 kts | 123° |
| 2026-05-04 20:49 | 22.49885 | -72.83328 | 36999 ft | 530 kts | 123° |
| 2026-05-04 20:50 | 22.46349 | -72.76291 | 36996 ft | 530 kts | 123° |
| 2026-05-04 20:50 | 22.42861 | -72.69359 | 37001 ft | 529 kts | 123° |
| 2026-05-04 20:51 | 22.39325 | -72.62341 | 36996 ft | 529 kts | 123° |
| 2026-05-04 20:51 | 22.35811 | -72.55377 | 36999 ft | 529 kts | 123° |
| 2026-05-04 20:52 | 22.32296 | -72.48419 | 36999 ft | 529 kts | 123° |
| 2026-05-04 20:52 | 22.28755 | -72.41420 | 37002 ft | 528 kts | 123° |
| 2026-05-04 20:53 | 22.25235 | -72.34473 | 37000 ft | 528 kts | 123° |
| 2026-05-04 20:53 | 22.21713 | -72.27529 | 36994 ft | 528 kts | 123° |
| 2026-05-04 20:54 | 22.18189 | -72.20591 | 36996 ft | 528 kts | 123° |
| 2026-05-04 20:54 | 22.14663 | -72.13659 | 36997 ft | 528 kts | 123° |
| 2026-05-04 20:55 | 22.11699 | -72.07839 | 36999 ft | 528 kts | 123° |
| 2026-05-04 20:55 | 22.08168 | -72.00915 | 36979 ft | 528 kts | 123° |
| 2026-05-04 20:56 | 22.04639 | -71.94001 | 36993 ft | 527 kts | 123° |
| 2026-05-04 20:56 | 22.01110 | -71.87099 | 36992 ft | 527 kts | 122° |
| 2026-05-04 20:57 | 21.97559 | -71.80161 | 36997 ft | 526 kts | 122° |
| 2026-05-04 20:57 | 21.94031 | -71.73278 | 36999 ft | 526 kts | 122° |
| 2026-05-04 20:58 | 21.90502 | -71.66402 | 36995 ft | 525 kts | 122° |
| 2026-05-04 20:58 | 21.86971 | -71.59533 | 36998 ft | 525 kts | 122° |
| 2026-05-04 20:59 | 21.83438 | -71.52668 | 36996 ft | 525 kts | 122° |
| 2026-05-04 20:59 | 21.79881 | -71.45764 | 36997 ft | 525 kts | 122° |
| 2026-05-04 21:00 | 21.76346 | -71.38910 | 36995 ft | 525 kts | 122° |
| 2026-05-04 21:00 | 21.72807 | -71.32061 | 36997 ft | 525 kts | 122° |
| 2026-05-04 21:01 | 21.69266 | -71.25215 | 36996 ft | 525 kts | 122° |
| 2026-05-04 21:01 | 21.65700 | -71.18328 | 37005 ft | 524 kts | 122° |
| 2026-05-04 21:02 | 21.62157 | -71.11494 | 37002 ft | 524 kts | 122° |
| 2026-05-04 21:02 | 21.58613 | -71.04667 | 36997 ft | 524 kts | 122° |
| 2026-05-04 21:03 | 21.55036 | -70.97808 | 36982 ft | 524 kts | 123° |
| 2026-05-04 21:03 | 21.51468 | -70.91007 | 36985 ft | 524 kts | 123° |
| 2026-05-04 21:04 | 21.47899 | -70.84212 | 37004 ft | 523 kts | 122° |
| 2026-05-04 21:04 | 21.44331 | -70.77422 | 36979 ft | 523 kts | 122° |
| 2026-05-04 21:05 | 21.40717 | -70.70547 | 36999 ft | 523 kts | 122° |
| 2026-05-04 21:05 | 21.37171 | -70.63812 | 36988 ft | 523 kts | 122° |
| 2026-05-04 21:06 | 21.33600 | -70.57038 | 36992 ft | 523 kts | 123° |
| 2026-05-04 21:06 | 21.30026 | -70.50268 | 36994 ft | 522 kts | 122° |
| 2026-05-04 21:07 | 21.26430 | -70.43462 | 36982 ft | 522 kts | 122° |
| 2026-05-04 21:07 | 21.22859 | -70.36714 | 36990 ft | 521 kts | 122° |
| 2026-05-04 21:08 | 21.19290 | -70.29976 | 36990 ft | 521 kts | 122° |
| 2026-05-04 21:08 | 21.15720 | -70.23247 | 36992 ft | 520 kts | 122° |
| 2026-05-04 21:09 | 21.12126 | -70.16479 | 36992 ft | 520 kts | 122° |
| 2026-05-04 21:09 | 21.08555 | -70.09764 | 36993 ft | 520 kts | 122° |
| 2026-05-04 21:10 | 21.04983 | -70.03053 | 36993 ft | 520 kts | 122° |
| 2026-05-04 21:10 | 21.01408 | -69.96346 | 36993 ft | 520 kts | 122° |
| 2026-05-04 21:11 | 20.97807 | -69.89599 | 36992 ft | 520 kts | 122° |
| 2026-05-04 21:11 | 20.94229 | -69.82900 | 36996 ft | 520 kts | 122° |
| 2026-05-04 21:12 | 20.90648 | -69.76204 | 37002 ft | 520 kts | 122° |
| 2026-05-04 21:12 | 20.87064 | -69.69510 | 36979 ft | 520 kts | 122° |
| 2026-05-04 21:13 | 20.83458 | -69.62775 | 36999 ft | 519 kts | 122° |
| 2026-05-04 21:13 | 20.79875 | -69.56088 | 37000 ft | 519 kts | 122° |
| 2026-05-04 21:14 | 20.76289 | -69.49405 | 36996 ft | 519 kts | 122° |
| 2026-05-04 21:14 | 20.72702 | -69.42728 | 37000 ft | 519 kts | 122° |
| 2026-05-04 21:15 | 20.69090 | -69.36012 | 37003 ft | 519 kts | 122° |
| 2026-05-04 21:15 | 20.65500 | -69.29345 | 37003 ft | 519 kts | 122° |
| 2026-05-04 21:16 | 20.61908 | -69.22683 | 37005 ft | 519 kts | 122° |
| 2026-05-04 21:16 | 20.58316 | -69.16028 | 37006 ft | 518 kts | 122° |
| 2026-05-04 21:17 | 20.54723 | -69.09380 | 37007 ft | 518 kts | 122° |
| 2026-05-04 21:17 | 20.51106 | -69.02695 | 37007 ft | 518 kts | 122° |
| 2026-05-04 21:18 | 20.47512 | -68.96059 | 37011 ft | 518 kts | 122° |
| 2026-05-04 21:18 | 20.43917 | -68.89431 | 37005 ft | 517 kts | 122° |
| 2026-05-04 21:19 | 20.40301 | -68.82770 | 37006 ft | 516 kts | 122° |
| 2026-05-04 21:19 | 20.36711 | -68.76165 | 37010 ft | 516 kts | 122° |
| 2026-05-04 21:20 | 20.33121 | -68.69567 | 37019 ft | 515 kts | 122° |
| 2026-05-04 21:20 | 20.29507 | -68.62933 | 37015 ft | 515 kts | 122° |
| 2026-05-04 21:21 | 20.25915 | -68.56348 | 37018 ft | 515 kts | 123° |
| 2026-05-04 21:21 | 20.22066 | -68.49953 | 37015 ft | 513 kts | 126° |
| 2026-05-04 21:22 | 20.18072 | -68.43672 | 37011 ft | 513 kts | 127° |
| 2026-05-04 21:22 | 20.14077 | -68.37394 | 37016 ft | 513 kts | 126° |
| 2026-05-04 21:23 | 20.10073 | -68.31059 | 37019 ft | 513 kts | 126° |
| 2026-05-04 21:23 | 20.06103 | -68.24762 | 37012 ft | 514 kts | 126° |
| 2026-05-04 21:24 | 20.02131 | -68.18467 | 37011 ft | 514 kts | 126° |
| 2026-05-04 21:24 | 19.98155 | -68.12176 | 37031 ft | 514 kts | 126° |
| 2026-05-04 21:25 | 19.94148 | -68.05844 | 37030 ft | 514 kts | 126° |
| 2026-05-04 21:25 | 19.90166 | -67.99558 | 37010 ft | 514 kts | 126° |
| 2026-05-04 21:26 | 19.86182 | -67.93276 | 37009 ft | 514 kts | 126° |
| 2026-05-04 21:26 | 19.82196 | -67.86997 | 37014 ft | 514 kts | 126° |
| 2026-05-04 21:27 | 19.78181 | -67.80680 | 37031 ft | 514 kts | 126° |
| 2026-05-04 21:27 | 19.74191 | -67.74408 | 37014 ft | 514 kts | 126° |
| 2026-05-04 21:28 | 19.70200 | -67.68140 | 37013 ft | 514 kts | 126° |
| 2026-05-04 21:28 | 19.66180 | -67.61835 | 37026 ft | 513 kts | 126° |
| 2026-05-04 21:29 | 19.62187 | -67.55578 | 37027 ft | 513 kts | 126° |
| 2026-05-04 21:29 | 19.58195 | -67.49329 | 37025 ft | 513 kts | 126° |
| 2026-05-04 21:30 | 19.54175 | -67.43043 | 37024 ft | 513 kts | 126° |
| 2026-05-04 21:30 | 19.50181 | -67.36804 | 37024 ft | 512 kts | 126° |
| 2026-05-04 21:31 | 19.44188 | -67.27453 | 37022 ft | 512 kts | 126° |
| 2026-05-04 21:32 | 19.40190 | -67.21224 | 37019 ft | 512 kts | 126° |
| 2026-05-04 21:32 | 19.36163 | -67.14956 | 37022 ft | 512 kts | 126° |
| 2026-05-04 21:33 | 19.32160 | -67.08731 | 37026 ft | 513 kts | 126° |
| 2026-05-04 21:33 | 19.28152 | -67.02506 | 37012 ft | 513 kts | 126° |
| 2026-05-04 21:34 | 19.24143 | -66.96284 | 37016 ft | 512 kts | 126° |
| 2026-05-04 21:34 | 19.20134 | -66.90069 | 37016 ft | 512 kts | 126° |
| 2026-05-04 21:35 | 19.16098 | -66.83818 | 37010 ft | 512 kts | 126° |
| 2026-05-04 21:35 | 19.12087 | -66.77614 | 37011 ft | 512 kts | 126° |
| 2026-05-04 21:36 | 19.08076 | -66.71413 | 37013 ft | 512 kts | 126° |
| 2026-05-04 21:36 | 19.04063 | -66.65217 | 37006 ft | 512 kts | 126° |
| 2026-05-04 21:37 | 19.00023 | -66.58983 | 37006 ft | 512 kts | 126° |
| 2026-05-04 21:37 | 18.96008 | -66.52796 | 37009 ft | 511 kts | 126° |
| 2026-05-04 21:38 | 18.92076 | -66.46556 | 37012 ft | 512 kts | 121° |
| 2026-05-04 21:38 | 18.88733 | -66.39880 | 37012 ft | 512 kts | 118° |
| 2026-05-04 21:39 | 18.85456 | -66.33125 | 37007 ft | 512 kts | 118° |
| 2026-05-04 21:39 | 18.82183 | -66.26452 | 37009 ft | 511 kts | 118° |
| 2026-05-04 21:40 | 18.78887 | -66.19801 | 37011 ft | 511 kts | 118° |
| 2026-05-04 21:40 | 18.75586 | -66.13160 | 37009 ft | 511 kts | 118° |
| 2026-05-04 21:41 | 18.72284 | -66.06524 | 37011 ft | 511 kts | 118° |
| 2026-05-04 21:41 | 18.68993 | -65.99911 | 37018 ft | 510 kts | 118° |
| 2026-05-04 21:42 | 18.66248 | -65.94401 | 37021 ft | 510 kts | 118° |
| 2026-05-04 21:42 | 18.62937 | -65.87760 | 37020 ft | 510 kts | 118° |
| 2026-05-04 21:43 | 18.59633 | -65.81141 | 37023 ft | 510 kts | 118° |
| 2026-05-04 21:43 | 18.56325 | -65.74522 | 37027 ft | 510 kts | 118° |
| 2026-05-04 21:44 | 18.53017 | -65.67909 | 37031 ft | 510 kts | 118° |
| 2026-05-04 21:44 | 18.49706 | -65.61297 | 37038 ft | 510 kts | 118° |
| 2026-05-04 21:45 | 18.46390 | -65.54682 | 37037 ft | 510 kts | 117° |
| 2026-05-04 21:45 | 18.43077 | -65.48081 | 37034 ft | 509 kts | 117° |
| 2026-05-04 21:46 | 18.39815 | -65.41588 | 36557 ft | 495 kts | 118° |
| 2026-05-04 21:46 | 18.38215 | -65.38403 | 36142 ft | 489 kts | 118° |
| 2026-05-04 21:46 | 18.36639 | -65.35270 | 35707 ft | 485 kts | 118° |
| 2026-05-04 21:46 | 18.35062 | -65.32138 | 35284 ft | 480 kts | 118° |
| 2026-05-04 21:47 | 18.33499 | -65.29039 | 34870 ft | 476 kts | 118° |
| 2026-05-04 21:47 | 18.31974 | -65.26019 | 34471 ft | 472 kts | 118° |
| 2026-05-04 21:47 | 18.30442 | -65.22987 | 34073 ft | 467 kts | 118° |
| 2026-05-04 21:47 | 18.28933 | -65.20000 | 33632 ft | 463 kts | 118° |
| 2026-05-04 21:48 | 18.27425 | -65.17018 | 33159 ft | 459 kts | 118° |
| 2026-05-04 21:48 | 18.25928 | -65.14057 | 32677 ft | 456 kts | 118° |
| 2026-05-04 21:48 | 18.24446 | -65.11127 | 32228 ft | 453 kts | 117° |
| 2026-05-04 21:48 | 18.22969 | -65.08207 | 31769 ft | 450 kts | 117° |
| 2026-05-04 21:49 | 18.21509 | -65.05320 | 31365 ft | 446 kts | 117° |
| 2026-05-04 21:49 | 18.20054 | -65.02449 | 30965 ft | 442 kts | 117° |
| 2026-05-04 21:49 | 18.18686 | -64.99569 | 30576 ft | 437 kts | 112° |
| 2026-05-04 21:49 | 18.17627 | -64.96593 | 30150 ft | 434 kts | 106° |
| 2026-05-04 21:50 | 18.16855 | -64.93544 | 29687 ft | 429 kts | 99° |
| 2026-05-04 21:50 | 18.16310 | -64.90489 | 29256 ft | 424 kts | 99° |
| 2026-05-04 21:50 | 18.15774 | -64.87452 | 28814 ft | 420 kts | 99° |
| 2026-05-04 21:50 | 18.15240 | -64.84443 | 28356 ft | 417 kts | 99° |
| 2026-05-04 21:51 | 18.14708 | -64.81467 | 27915 ft | 413 kts | 99° |
| 2026-05-04 21:51 | 18.14175 | -64.78511 | 27510 ft | 409 kts | 99° |
| 2026-05-04 21:51 | 18.13643 | -64.75584 | 27107 ft | 405 kts | 100° |
| 2026-05-04 21:51 | 18.13116 | -64.72694 | 26713 ft | 402 kts | 100° |
| 2026-05-04 21:52 | 18.12590 | -64.69819 | 26306 ft | 398 kts | 100° |
| 2026-05-04 21:52 | 18.12070 | -64.66978 | 25915 ft | 395 kts | 101° |
| 2026-05-04 21:52 | 18.11551 | -64.64153 | 25539 ft | 391 kts | 101° |
| 2026-05-04 21:52 | 18.11038 | -64.61356 | 25178 ft | 388 kts | 101° |
| 2026-05-04 21:53 | 18.10529 | -64.58588 | 24782 ft | 385 kts | 101° |
| 2026-05-04 21:53 | 18.10022 | -64.55831 | 24422 ft | 382 kts | 101° |
| 2026-05-04 21:53 | 18.09520 | -64.53105 | 24109 ft | 377 kts | 101° |
| 2026-05-04 21:53 | 18.09024 | -64.50413 | 23722 ft | 375 kts | 101° |
| 2026-05-04 21:54 | 18.08527 | -64.47720 | 23277 ft | 374 kts | 102° |
| 2026-05-04 21:54 | 18.08035 | -64.45052 | 22832 ft | 371 kts | 102° |
| 2026-05-04 21:54 | 18.07543 | -64.42389 | 22348 ft | 371 kts | 102° |
| 2026-05-04 21:54 | 18.07050 | -64.39725 | 21815 ft | 372 kts | 101° |
| 2026-05-04 21:55 | 18.06557 | -64.37062 | 21317 ft | 372 kts | 101° |
| 2026-05-04 21:55 | 18.06062 | -64.34389 | 20849 ft | 372 kts | 101° |
| 2026-05-04 21:55 | 18.05574 | -64.31760 | 20441 ft | 370 kts | 101° |
| 2026-05-04 21:55 | 18.05078 | -64.29081 | 20029 ft | 369 kts | 101° |
| 2026-05-04 21:56 | 18.04586 | -64.26432 | 19560 ft | 369 kts | 101° |
| 2026-05-04 21:56 | 18.04092 | -64.23771 | 19066 ft | 371 kts | 101° |
| 2026-05-04 21:56 | 18.03599 | -64.21120 | 18701 ft | 369 kts | 101° |
| 2026-05-04 21:56 | 18.03115 | -64.18518 | 18360 ft | 366 kts | 101° |
| 2026-05-04 21:57 | 18.02622 | -64.15867 | 17918 ft | 365 kts | 101° |
| 2026-05-04 21:57 | 18.02144 | -64.13299 | 17463 ft | 358 kts | 101° |
| 2026-05-04 21:57 | 18.01668 | -64.10748 | 16838 ft | 353 kts | 101° |
| 2026-05-04 21:57 | 18.01199 | -64.08232 | 16161 ft | 350 kts | 101° |
| 2026-05-04 21:58 | 18.00734 | -64.05742 | 15529 ft | 346 kts | 101° |
| 2026-05-04 21:58 | 18.00274 | -64.03282 | 14996 ft | 339 kts | 101° |
| 2026-05-04 21:58 | 17.99826 | -64.00882 | 14473 ft | 332 kts | 101° |
| 2026-05-04 21:58 | 17.99383 | -63.98516 | 13921 ft | 327 kts | 101° |
| 2026-05-04 21:59 | 17.98947 | -63.96186 | 13316 ft | 322 kts | 102° |
| 2026-05-04 21:59 | 17.98517 | -63.93894 | 12652 ft | 320 kts | 102° |
| 2026-05-04 21:59 | 17.98087 | -63.91600 | 11991 ft | 316 kts | 102° |
| 2026-05-04 21:59 | 17.97669 | -63.89373 | 11643 ft | 309 kts | 102° |
| 2026-05-04 22:00 | 17.97254 | -63.87160 | 11274 ft | 308 kts | 102° |
| 2026-05-04 22:00 | 17.96839 | -63.84952 | 10925 ft | 307 kts | 102° |
| 2026-05-04 22:00 | 17.96426 | -63.82759 | 10582 ft | 306 kts | 102° |
| 2026-05-04 22:00 | 17.96016 | -63.80578 | 10363 ft | 300 kts | 102° |
| 2026-05-04 22:01 | 17.95617 | -63.78453 | 10210 ft | 292 kts | 102° |
| 2026-05-04 22:01 | 17.95228 | -63.76390 | 10075 ft | 284 kts | 102° |
| 2026-05-04 22:01 | 17.94848 | -63.74370 | 9802 ft | 281 kts | 102° |
| 2026-05-04 22:01 | 17.94470 | -63.72368 | 9493 ft | 280 kts | 102° |
| 2026-05-04 22:02 | 17.94092 | -63.70364 | 9174 ft | 278 kts | 102° |
| 2026-05-04 22:02 | 17.93716 | -63.68375 | 8872 ft | 277 kts | 102° |
| 2026-05-04 22:02 | 17.93463 | -63.66403 | 8536 ft | 270 kts | 88° |
| 2026-05-04 22:02 | 17.93803 | -63.64467 | 8216 ft | 270 kts | 78° |
| 2026-05-04 22:03 | 17.94246 | -63.62537 | 7858 ft | 273 kts | 79° |
| 2026-05-04 22:03 | 17.94684 | -63.60599 | 7538 ft | 273 kts | 79° |
| 2026-05-04 22:03 | 17.95114 | -63.58666 | 7223 ft | 272 kts | 78° |
| 2026-05-04 22:03 | 17.95540 | -63.56742 | 6975 ft | 268 kts | 79° |
| 2026-05-04 22:04 | 17.95960 | -63.54826 | 6614 ft | 270 kts | 79° |
| 2026-05-04 22:04 | 17.96377 | -63.52913 | 6305 ft | 268 kts | 79° |
| 2026-05-04 22:04 | 17.96791 | -63.51005 | 5985 ft | 267 kts | 79° |
| 2026-05-04 22:04 | 17.97202 | -63.49109 | 5689 ft | 266 kts | 79° |
| 2026-05-04 22:05 | 17.97611 | -63.47216 | 5364 ft | 265 kts | 79° |
| 2026-05-04 22:05 | 17.98017 | -63.45338 | 5057 ft | 263 kts | 79° |
| 2026-05-04 22:05 | 17.98419 | -63.43473 | 4755 ft | 261 kts | 79° |
| 2026-05-04 22:05 | 17.98817 | -63.41625 | 4450 ft | 258 kts | 79° |
| 2026-05-04 22:06 | 17.99212 | -63.39790 | 4161 ft | 256 kts | 79° |
| 2026-05-04 22:06 | 17.99599 | -63.37990 | 3900 ft | 251 kts | 80° |
| 2026-05-04 22:06 | 17.99982 | -63.36207 | 3594 ft | 248 kts | 80° |
| 2026-05-04 22:06 | 18.00355 | -63.34479 | 3450 ft | 237 kts | 80° |
| 2026-05-04 22:07 | 18.00711 | -63.32825 | 3345 ft | 227 kts | 81° |
| 2026-05-04 22:07 | 18.01051 | -63.31244 | 3227 ft | 216 kts | 80° |
| 2026-05-04 22:07 | 18.01372 | -63.29749 | 3135 ft | 204 kts | 81° |
| 2026-05-04 22:07 | 18.01614 | -63.28329 | 2986 ft | 195 kts | 85° |
| 2026-05-04 22:08 | 18.01809 | -63.26938 | 2776 ft | 188 kts | 85° |
| 2026-05-04 22:08 | 18.01997 | -63.25597 | 2558 ft | 185 kts | 85° |
| 2026-05-04 22:08 | 18.02185 | -63.24262 | 2377 ft | 182 kts | 85° |
| 2026-05-04 22:08 | 18.02373 | -63.22948 | 2110 ft | 182 kts | 84° |
| 2026-05-04 22:09 | 18.02559 | -63.21650 | 1863 ft | 176 kts | 84° |
| 2026-05-04 22:09 | 18.02730 | -63.20465 | 1766 ft | 153 kts | 84° |
| 2026-05-04 22:09 | 18.02881 | -63.19414 | 1566 ft | 142 kts | 85° |
| 2026-05-04 22:09 | 18.03023 | -63.18413 | 1385 ft | 135 kts | 85° |
| 2026-05-04 22:10 | 18.03161 | -63.17438 | 1322 ft | 134 kts | 84° |
| 2026-05-04 22:10 | 18.03298 | -63.16474 | 1164 ft | 137 kts | 84° |
| 2026-05-04 22:10 | 18.03440 | -63.15470 | 949 ft | 142 kts | 84° |
| 2026-05-04 22:10 | 18.03579 | -63.14445 | 708 ft | 141 kts | 82° |
| 2026-05-04 22:11 | 18.03737 | -63.13452 | 417 ft | 136 kts | 84° |
| 2026-05-04 22:11 | 18.03872 | -63.12466 | 193 ft | 137 kts | 82° |
| 2026-05-04 22:11 | 18.04008 | -63.11504 | 29 ft | 127 kts | 83° |
| 2026-05-04 22:11 | 18.04116 | -63.10737 | 28 ft | 80 kts | 81° |
| 2026-05-04 22:12 | 18.04171 | -63.10349 | 28 ft | 27 kts | 81° |
| 2026-05-04 22:12 | 18.04188 | -63.10228 | 24 ft | 16 kts | 81° |
| 2026-05-04 22:12 | 18.04204 | -63.10115 | 27 ft | 16 kts | 82° |
| 2026-05-04 22:12 | 18.04220 | -63.10002 | 24 ft | 16 kts | 80° |
| 2026-05-04 22:13 | 18.04267 | -63.09910 | 29 ft | 14 kts | 52° |
| 2026-05-04 22:13 | 18.04280 | -63.09853 | 29 ft | 6 kts | 135° |
| 2026-05-04 22:13 | 18.04248 | -63.09862 | 29 ft | 5 kts | 229° |
| 2026-05-04 22:13 | 18.04231 | -63.09909 | 28 ft | 8 kts | 254° |
| 2026-05-04 22:14 | 18.04222 | -63.09976 | 25 ft | 10 kts | 263° |
| 2026-05-04 22:14 | 18.04212 | -63.10055 | 28 ft | 11 kts | 262° |
| 2026-05-04 22:14 | 18.04199 | -63.10151 | 28 ft | 19 kts | 262° |
| 2026-05-04 22:14 | 18.04174 | -63.10331 | 26 ft | 28 kts | 261° |